sensor_id;sensor_type;location;lat;lon;timestamp;P1;durP1;ratioP1;P2;durP2;ratioP2
14100;SDS011;7127;49.372;8.166;2022-10-14T00:02:08;3.77;;;2.63;;
14100;SDS011;7127;49.372;8.166;2022-10-14T00:04:35;3.40;;;2.80;;
14100;SDS011;7127;49.372;8.166;2022-10-14T00:07:02;3.63;;;2.77;;
14100;SDS011;7127;49.372;8.166;2022-10-14T00:09:30;4.07;;;2.83;;
14100;SDS011;7127;49.372;8.166;2022-10-14T00:11:57;2.70;;;2.30;;
14100;SDS011;7127;49.372;8.166;2022-10-14T00:14:24;3.60;;;2.70;;
14100;SDS011;7127;49.372;8.166;2022-10-14T00:16:52;3.23;;;2.80;;
14100;SDS011;7127;49.372;8.166;2022-10-14T00:19:19;3.80;;;2.60;;
14100;SDS011;7127;49.372;8.166;2022-10-14T00:21:46;3.93;;;2.43;;
14100;SDS011;7127;49.372;8.166;2022-10-14T00:24:14;3.33;;;2.67;;
14100;SDS011;7127;49.372;8.166;2022-10-14T00:26:44;2.93;;;2.57;;
14100;SDS011;7127;49.372;8.166;2022-10-14T00:29:13;4.30;;;3.10;;
14100;SDS011;7127;49.372;8.166;2022-10-14T00:31:42;3.53;;;2.70;;
14100;SDS011;7127;49.372;8.166;2022-10-14T00:34:09;3.97;;;2.80;;
14100;SDS011;7127;49.372;8.166;2022-10-14T00:36:37;3.70;;;3.03;;
14100;SDS011;7127;49.372;8.166;2022-10-14T00:39:04;6.80;;;3.07;;
14100;SDS011;7127;49.372;8.166;2022-10-14T00:41:32;4.73;;;3.13;;
14100;SDS011;7127;49.372;8.166;2022-10-14T00:44:02;4.50;;;3.27;;
14100;SDS011;7127;49.372;8.166;2022-10-14T00:46:32;3.70;;;2.67;;
14100;SDS011;7127;49.372;8.166;2022-10-14T00:49:01;3.90;;;2.83;;
14100;SDS011;7127;49.372;8.166;2022-10-14T00:51:32;4.60;;;3.13;;
14100;SDS011;7127;49.372;8.166;2022-10-14T00:54:01;4.43;;;3.13;;
14100;SDS011;7127;49.372;8.166;2022-10-14T00:56:28;3.77;;;2.70;;
14100;SDS011;7127;49.372;8.166;2022-10-14T00:58:56;3.50;;;2.90;;
14100;SDS011;7127;49.372;8.166;2022-10-14T01:01:27;3.53;;;2.77;;
14100;SDS011;7127;49.372;8.166;2022-10-14T01:03:54;3.77;;;2.53;;
14100;SDS011;7127;49.372;8.166;2022-10-14T01:06:22;3.43;;;2.30;;
14100;SDS011;7127;49.372;8.166;2022-10-14T01:08:59;5.00;;;2.97;;
14100;SDS011;7127;49.372;8.166;2022-10-14T01:11:33;4.10;;;2.93;;
14100;SDS011;7127;49.372;8.166;2022-10-14T01:14:09;3.20;;;2.70;;
14100;SDS011;7127;49.372;8.166;2022-10-14T01:16:45;3.63;;;2.80;;
14100;SDS011;7127;49.372;8.166;2022-10-14T01:19:31;3.10;;;2.80;;
14100;SDS011;7127;49.372;8.166;2022-10-14T01:22:15;3.07;;;2.37;;
14100;SDS011;7127;49.372;8.166;2022-10-14T01:24:51;4.30;;;2.90;;
14100;SDS011;7127;49.372;8.166;2022-10-14T01:30:25;3.70;;;2.33;;
14100;SDS011;7127;49.372;8.166;2022-10-14T01:33:06;3.30;;;2.57;;
14100;SDS011;7127;49.372;8.166;2022-10-14T01:35:40;4.10;;;2.70;;
14100;SDS011;7127;49.372;8.166;2022-10-14T01:38:19;3.03;;;2.63;;
14100;SDS011;7127;49.372;8.166;2022-10-14T01:40:51;3.27;;;2.57;;
14100;SDS011;7127;49.372;8.166;2022-10-14T01:43:22;5.20;;;2.67;;
14100;SDS011;7127;49.372;8.166;2022-10-14T01:45:54;3.13;;;2.70;;
14100;SDS011;7127;49.372;8.166;2022-10-14T01:48:23;3.67;;;2.50;;
14100;SDS011;7127;49.372;8.166;2022-10-14T01:50:53;3.40;;;2.50;;
14100;SDS011;7127;49.372;8.166;2022-10-14T01:53:24;2.87;;;2.20;;
14100;SDS011;7127;49.372;8.166;2022-10-14T01:55:55;2.83;;;2.33;;
14100;SDS011;7127;49.372;8.166;2022-10-14T01:58:24;3.10;;;2.67;;
14100;SDS011;7127;49.372;8.166;2022-10-14T02:00:57;2.93;;;2.63;;
14100;SDS011;7127;49.372;8.166;2022-10-14T02:03:24;3.17;;;2.60;;
14100;SDS011;7127;49.372;8.166;2022-10-14T02:05:52;3.17;;;2.70;;
14100;SDS011;7127;49.372;8.166;2022-10-14T02:08:25;3.57;;;2.53;;
14100;SDS011;7127;49.372;8.166;2022-10-14T02:11:06;2.87;;;2.50;;
14100;SDS011;7127;49.372;8.166;2022-10-14T02:13:41;2.70;;;2.50;;
14100;SDS011;7127;49.372;8.166;2022-10-14T02:16:18;3.23;;;2.40;;
14100;SDS011;7127;49.372;8.166;2022-10-14T02:18:53;3.23;;;2.50;;
14100;SDS011;7127;49.372;8.166;2022-10-14T02:21:27;3.97;;;2.60;;
14100;SDS011;7127;49.372;8.166;2022-10-14T02:24:01;4.43;;;2.40;;
14100;SDS011;7127;49.372;8.166;2022-10-14T02:26:32;2.60;;;2.37;;
14100;SDS011;7127;49.372;8.166;2022-10-14T02:29:02;3.07;;;2.63;;
14100;SDS011;7127;49.372;8.166;2022-10-14T02:31:31;2.70;;;2.50;;
14100;SDS011;7127;49.372;8.166;2022-10-14T02:34:01;4.00;;;2.70;;
14100;SDS011;7127;49.372;8.166;2022-10-14T02:36:30;4.50;;;2.83;;
14100;SDS011;7127;49.372;8.166;2022-10-14T02:38:59;3.20;;;2.80;;
14100;SDS011;7127;49.372;8.166;2022-10-14T02:41:29;2.97;;;2.53;;
14100;SDS011;7127;49.372;8.166;2022-10-14T02:43:58;4.37;;;2.90;;
14100;SDS011;7127;49.372;8.166;2022-10-14T02:46:26;2.93;;;2.40;;
14100;SDS011;7127;49.372;8.166;2022-10-14T02:48:55;4.07;;;2.20;;
14100;SDS011;7127;49.372;8.166;2022-10-14T02:51:22;2.90;;;2.53;;
14100;SDS011;7127;49.372;8.166;2022-10-14T02:53:49;4.57;;;2.57;;
14100;SDS011;7127;49.372;8.166;2022-10-14T02:56:18;2.90;;;2.60;;
14100;SDS011;7127;49.372;8.166;2022-10-14T02:58:45;3.33;;;2.53;;
14100;SDS011;7127;49.372;8.166;2022-10-14T03:01:14;2.53;;;2.33;;
14100;SDS011;7127;49.372;8.166;2022-10-14T03:03:41;2.53;;;2.30;;
14100;SDS011;7127;49.372;8.166;2022-10-14T03:06:09;3.80;;;2.70;;
14100;SDS011;7127;49.372;8.166;2022-10-14T03:08:36;2.83;;;2.23;;
14100;SDS011;7127;49.372;8.166;2022-10-14T03:11:03;2.87;;;2.30;;
14100;SDS011;7127;49.372;8.166;2022-10-14T03:13:31;3.03;;;2.50;;
14100;SDS011;7127;49.372;8.166;2022-10-14T03:15:57;3.40;;;2.53;;
14100;SDS011;7127;49.372;8.166;2022-10-14T03:18:25;2.50;;;2.30;;
14100;SDS011;7127;49.372;8.166;2022-10-14T03:20:52;3.37;;;2.70;;
14100;SDS011;7127;49.372;8.166;2022-10-14T03:23:20;2.70;;;2.40;;
14100;SDS011;7127;49.372;8.166;2022-10-14T03:25:47;3.03;;;2.33;;
14100;SDS011;7127;49.372;8.166;2022-10-14T03:28:14;3.17;;;2.30;;
14100;SDS011;7127;49.372;8.166;2022-10-14T03:30:41;2.60;;;2.40;;
14100;SDS011;7127;49.372;8.166;2022-10-14T03:33:08;2.73;;;2.53;;
14100;SDS011;7127;49.372;8.166;2022-10-14T03:35:35;2.87;;;2.23;;
14100;SDS011;7127;49.372;8.166;2022-10-14T03:38:02;3.07;;;2.30;;
14100;SDS011;7127;49.372;8.166;2022-10-14T03:40:32;3.73;;;2.57;;
14100;SDS011;7127;49.372;8.166;2022-10-14T03:42:59;2.93;;;2.50;;
14100;SDS011;7127;49.372;8.166;2022-10-14T03:45:26;3.03;;;2.57;;
14100;SDS011;7127;49.372;8.166;2022-10-14T03:47:53;3.07;;;2.60;;
14100;SDS011;7127;49.372;8.166;2022-10-14T03:50:20;2.67;;;2.47;;
14100;SDS011;7127;49.372;8.166;2022-10-14T03:52:48;4.27;;;2.73;;
14100;SDS011;7127;49.372;8.166;2022-10-14T03:55:15;2.97;;;2.47;;
14100;SDS011;7127;49.372;8.166;2022-10-14T03:57:43;2.80;;;2.60;;
14100;SDS011;7127;49.372;8.166;2022-10-14T04:00:11;2.50;;;2.30;;
14100;SDS011;7127;49.372;8.166;2022-10-14T04:02:39;5.07;;;2.50;;
14100;SDS011;7127;49.372;8.166;2022-10-14T04:05:06;3.17;;;2.50;;
14100;SDS011;7127;49.372;8.166;2022-10-14T04:07:34;4.30;;;2.90;;
14100;SDS011;7127;49.372;8.166;2022-10-14T04:10:03;3.03;;;2.60;;
14100;SDS011;7127;49.372;8.166;2022-10-14T04:12:31;3.10;;;2.57;;
14100;SDS011;7127;49.372;8.166;2022-10-14T04:14:59;4.40;;;2.70;;
14100;SDS011;7127;49.372;8.166;2022-10-14T04:17:26;3.60;;;2.53;;
14100;SDS011;7127;49.372;8.166;2022-10-14T04:19:53;3.67;;;2.90;;
14100;SDS011;7127;49.372;8.166;2022-10-14T04:22:20;3.70;;;2.07;;
14100;SDS011;7127;49.372;8.166;2022-10-14T04:24:47;3.90;;;2.67;;
14100;SDS011;7127;49.372;8.166;2022-10-14T04:27:15;2.80;;;2.60;;
14100;SDS011;7127;49.372;8.166;2022-10-14T04:29:42;2.80;;;2.50;;
14100;SDS011;7127;49.372;8.166;2022-10-14T04:32:10;2.90;;;2.60;;
14100;SDS011;7127;49.372;8.166;2022-10-14T04:34:37;3.23;;;2.50;;
14100;SDS011;7127;49.372;8.166;2022-10-14T04:37:04;2.80;;;2.50;;
14100;SDS011;7127;49.372;8.166;2022-10-14T04:39:31;3.53;;;2.83;;
14100;SDS011;7127;49.372;8.166;2022-10-14T04:41:59;2.43;;;2.23;;
14100;SDS011;7127;49.372;8.166;2022-10-14T04:44:26;3.20;;;2.53;;
14100;SDS011;7127;49.372;8.166;2022-10-14T04:46:53;2.90;;;2.60;;
14100;SDS011;7127;49.372;8.166;2022-10-14T04:49:21;3.47;;;2.60;;
14100;SDS011;7127;49.372;8.166;2022-10-14T04:51:48;3.17;;;2.80;;
14100;SDS011;7127;49.372;8.166;2022-10-14T04:54:18;3.33;;;3.03;;
14100;SDS011;7127;49.372;8.166;2022-10-14T04:56:45;3.10;;;2.80;;
14100;SDS011;7127;49.372;8.166;2022-10-14T04:59:12;3.87;;;3.20;;
14100;SDS011;7127;49.372;8.166;2022-10-14T05:01:39;3.07;;;2.77;;
14100;SDS011;7127;49.372;8.166;2022-10-14T05:04:06;3.43;;;3.13;;
14100;SDS011;7127;49.372;8.166;2022-10-14T05:06:34;3.30;;;2.80;;
14100;SDS011;7127;49.372;8.166;2022-10-14T05:09:02;3.60;;;2.93;;
14100;SDS011;7127;49.372;8.166;2022-10-14T05:11:29;4.07;;;2.83;;
14100;SDS011;7127;49.372;8.166;2022-10-14T05:13:56;3.30;;;3.00;;
14100;SDS011;7127;49.372;8.166;2022-10-14T05:16:23;4.03;;;3.43;;
14100;SDS011;7127;49.372;8.166;2022-10-14T05:18:51;4.47;;;3.40;;
14100;SDS011;7127;49.372;8.166;2022-10-14T05:21:18;3.27;;;2.90;;
14100;SDS011;7127;49.372;8.166;2022-10-14T05:23:46;3.37;;;3.07;;
14100;SDS011;7127;49.372;8.166;2022-10-14T05:26:14;4.20;;;3.20;;
14100;SDS011;7127;49.372;8.166;2022-10-14T05:28:41;3.47;;;3.03;;
14100;SDS011;7127;49.372;8.166;2022-10-14T05:31:08;3.60;;;3.23;;
14100;SDS011;7127;49.372;8.166;2022-10-14T05:33:35;5.00;;;3.30;;
14100;SDS011;7127;49.372;8.166;2022-10-14T05:36:02;3.83;;;3.30;;
14100;SDS011;7127;49.372;8.166;2022-10-14T05:38:30;3.27;;;2.90;;
14100;SDS011;7127;49.372;8.166;2022-10-14T05:40:59;3.70;;;3.20;;
14100;SDS011;7127;49.372;8.166;2022-10-14T05:43:26;4.10;;;3.70;;
14100;SDS011;7127;49.372;8.166;2022-10-14T05:45:53;4.67;;;3.33;;
14100;SDS011;7127;49.372;8.166;2022-10-14T05:48:20;3.80;;;3.20;;
14100;SDS011;7127;49.372;8.166;2022-10-14T05:50:47;4.20;;;3.80;;
14100;SDS011;7127;49.372;8.166;2022-10-14T05:53:13;4.27;;;3.63;;
14100;SDS011;7127;49.372;8.166;2022-10-14T05:55:40;4.47;;;3.70;;
14100;SDS011;7127;49.372;8.166;2022-10-14T05:58:09;4.10;;;3.60;;
14100;SDS011;7127;49.372;8.166;2022-10-14T06:00:36;3.90;;;3.40;;
14100;SDS011;7127;49.372;8.166;2022-10-14T06:03:03;4.17;;;3.77;;
14100;SDS011;7127;49.372;8.166;2022-10-14T06:05:33;4.33;;;3.40;;
14100;SDS011;7127;49.372;8.166;2022-10-14T06:08:01;4.00;;;3.60;;
14100;SDS011;7127;49.372;8.166;2022-10-14T06:10:29;3.43;;;3.13;;
14100;SDS011;7127;49.372;8.166;2022-10-14T06:12:56;5.57;;;3.80;;
14100;SDS011;7127;49.372;8.166;2022-10-14T06:15:24;4.13;;;3.70;;
14100;SDS011;7127;49.372;8.166;2022-10-14T06:17:52;4.10;;;3.70;;
14100;SDS011;7127;49.372;8.166;2022-10-14T06:20:19;5.27;;;3.43;;
14100;SDS011;7127;49.372;8.166;2022-10-14T06:22:46;5.23;;;4.03;;
14100;SDS011;7127;49.372;8.166;2022-10-14T06:25:13;4.50;;;3.80;;
14100;SDS011;7127;49.372;8.166;2022-10-14T06:27:40;4.37;;;3.70;;
14100;SDS011;7127;49.372;8.166;2022-10-14T06:30:08;3.77;;;3.47;;
14100;SDS011;7127;49.372;8.166;2022-10-14T06:32:37;4.47;;;4.07;;
14100;SDS011;7127;49.372;8.166;2022-10-14T06:35:04;5.13;;;3.93;;
14100;SDS011;7127;49.372;8.166;2022-10-14T06:37:32;7.27;;;4.23;;
14100;SDS011;7127;49.372;8.166;2022-10-14T06:39:59;5.13;;;4.20;;
14100;SDS011;7127;49.372;8.166;2022-10-14T06:42:26;4.90;;;4.23;;
14100;SDS011;7127;49.372;8.166;2022-10-14T06:44:53;4.67;;;4.07;;
14100;SDS011;7127;49.372;8.166;2022-10-14T06:47:20;5.80;;;4.40;;
14100;SDS011;7127;49.372;8.166;2022-10-14T06:49:48;4.80;;;4.33;;
14100;SDS011;7127;49.372;8.166;2022-10-14T06:52:15;5.37;;;3.57;;
14100;SDS011;7127;49.372;8.166;2022-10-14T06:54:42;5.50;;;4.83;;
14100;SDS011;7127;49.372;8.166;2022-10-14T06:57:09;5.27;;;4.40;;
14100;SDS011;7127;49.372;8.166;2022-10-14T06:59:36;6.40;;;4.70;;
14100;SDS011;7127;49.372;8.166;2022-10-14T07:02:04;5.03;;;4.53;;
14100;SDS011;7127;49.372;8.166;2022-10-14T07:04:31;6.67;;;4.40;;
14100;SDS011;7127;49.372;8.166;2022-10-14T07:06:59;6.20;;;4.63;;
14100;SDS011;7127;49.372;8.166;2022-10-14T07:09:27;5.43;;;4.57;;
14100;SDS011;7127;49.372;8.166;2022-10-14T07:11:54;4.97;;;4.47;;
14100;SDS011;7127;49.372;8.166;2022-10-14T07:14:21;7.50;;;4.70;;
14100;SDS011;7127;49.372;8.166;2022-10-14T07:16:48;5.50;;;4.90;;
14100;SDS011;7127;49.372;8.166;2022-10-14T07:19:15;8.37;;;4.43;;
14100;SDS011;7127;49.372;8.166;2022-10-14T07:21:42;5.37;;;4.83;;
14100;SDS011;7127;49.372;8.166;2022-10-14T07:24:12;6.93;;;5.40;;
14100;SDS011;7127;49.372;8.166;2022-10-14T07:26:39;6.37;;;4.57;;
14100;SDS011;7127;49.372;8.166;2022-10-14T07:29:06;4.77;;;4.30;;
14100;SDS011;7127;49.372;8.166;2022-10-14T07:31:34;5.53;;;4.93;;
14100;SDS011;7127;49.372;8.166;2022-10-14T07:34:02;5.20;;;4.47;;
14100;SDS011;7127;49.372;8.166;2022-10-14T07:36:29;5.20;;;4.33;;
14100;SDS011;7127;49.372;8.166;2022-10-14T07:38:56;5.00;;;4.53;;
14100;SDS011;7127;49.372;8.166;2022-10-14T07:41:24;6.17;;;5.23;;
14100;SDS011;7127;49.372;8.166;2022-10-14T07:43:52;5.20;;;4.70;;
14100;SDS011;7127;49.372;8.166;2022-10-14T07:46:21;4.80;;;4.33;;
14100;SDS011;7127;49.372;8.166;2022-10-14T07:48:54;5.23;;;4.57;;
14100;SDS011;7127;49.372;8.166;2022-10-14T07:51:22;5.47;;;4.83;;
14100;SDS011;7127;49.372;8.166;2022-10-14T07:53:49;5.10;;;4.60;;
14100;SDS011;7127;49.372;8.166;2022-10-14T07:56:17;5.20;;;4.63;;
14100;SDS011;7127;49.372;8.166;2022-10-14T07:58:45;4.50;;;4.10;;
14100;SDS011;7127;49.372;8.166;2022-10-14T08:01:13;5.03;;;4.37;;
14100;SDS011;7127;49.372;8.166;2022-10-14T08:03:40;7.30;;;4.73;;
14100;SDS011;7127;49.372;8.166;2022-10-14T08:06:08;6.33;;;4.93;;
14100;SDS011;7127;49.372;8.166;2022-10-14T08:08:36;5.90;;;4.43;;
14100;SDS011;7127;49.372;8.166;2022-10-14T08:11:04;5.57;;;4.97;;
14100;SDS011;7127;49.372;8.166;2022-10-14T08:13:33;5.87;;;5.03;;
14100;SDS011;7127;49.372;8.166;2022-10-14T08:16:02;5.50;;;5.00;;
14100;SDS011;7127;49.372;8.166;2022-10-14T08:18:36;6.13;;;4.17;;
14100;SDS011;7127;49.372;8.166;2022-10-14T08:21:03;5.17;;;4.73;;
14100;SDS011;7127;49.372;8.166;2022-10-14T08:23:30;5.10;;;4.60;;
14100;SDS011;7127;49.372;8.166;2022-10-14T08:25:57;6.07;;;5.07;;
14100;SDS011;7127;49.372;8.166;2022-10-14T08:28:24;5.57;;;4.73;;
14100;SDS011;7127;49.372;8.166;2022-10-14T08:30:52;5.43;;;4.63;;
14100;SDS011;7127;49.372;8.166;2022-10-14T08:33:20;7.60;;;4.80;;
14100;SDS011;7127;49.372;8.166;2022-10-14T08:35:47;5.60;;;4.83;;
14100;SDS011;7127;49.372;8.166;2022-10-14T08:38:14;5.33;;;4.33;;
14100;SDS011;7127;49.372;8.166;2022-10-14T08:40:48;5.17;;;4.67;;
14100;SDS011;7127;49.372;8.166;2022-10-14T08:43:25;7.30;;;5.53;;
14100;SDS011;7127;49.372;8.166;2022-10-14T08:45:56;4.60;;;4.20;;
14100;SDS011;7127;49.372;8.166;2022-10-14T08:48:33;5.20;;;4.63;;
14100;SDS011;7127;49.372;8.166;2022-10-14T08:51:02;6.63;;;4.60;;
14100;SDS011;7127;49.372;8.166;2022-10-14T08:53:34;7.53;;;4.63;;
14100;SDS011;7127;49.372;8.166;2022-10-14T08:56:05;6.00;;;4.70;;
14100;SDS011;7127;49.372;8.166;2022-10-14T08:58:34;5.10;;;4.37;;
14100;SDS011;7127;49.372;8.166;2022-10-14T09:01:10;5.30;;;4.80;;
14100;SDS011;7127;49.372;8.166;2022-10-14T09:03:48;6.83;;;4.93;;
14100;SDS011;7127;49.372;8.166;2022-10-14T09:06:19;5.70;;;5.20;;
14100;SDS011;7127;49.372;8.166;2022-10-14T09:08:51;5.07;;;4.57;;
14100;SDS011;7127;49.372;8.166;2022-10-14T09:11:22;5.90;;;5.30;;
14100;SDS011;7127;49.372;8.166;2022-10-14T09:13:50;5.27;;;4.77;;
14100;SDS011;7127;49.372;8.166;2022-10-14T09:16:21;6.23;;;5.23;;
14100;SDS011;7127;49.372;8.166;2022-10-14T09:18:52;7.40;;;5.43;;
14100;SDS011;7127;49.372;8.166;2022-10-14T09:21:30;6.70;;;5.63;;
14100;SDS011;7127;49.372;8.166;2022-10-14T09:24:08;5.70;;;4.70;;
14100;SDS011;7127;49.372;8.166;2022-10-14T09:26:39;7.17;;;5.47;;
14100;SDS011;7127;49.372;8.166;2022-10-14T09:29:13;5.67;;;5.07;;
14100;SDS011;7127;49.372;8.166;2022-10-14T09:31:47;5.23;;;4.70;;
14100;SDS011;7127;49.372;8.166;2022-10-14T09:34:17;5.07;;;4.17;;
14100;SDS011;7127;49.372;8.166;2022-10-14T09:36:45;4.67;;;4.10;;
14100;SDS011;7127;49.372;8.166;2022-10-14T09:39:16;4.40;;;3.53;;
14100;SDS011;7127;49.372;8.166;2022-10-14T09:41:52;3.47;;;3.17;;
14100;SDS011;7127;49.372;8.166;2022-10-14T09:44:21;3.87;;;3.30;;
14100;SDS011;7127;49.372;8.166;2022-10-14T09:46:51;4.27;;;3.40;;
14100;SDS011;7127;49.372;8.166;2022-10-14T09:49:24;3.57;;;3.23;;
14100;SDS011;7127;49.372;8.166;2022-10-14T09:52:04;4.87;;;2.73;;
14100;SDS011;7127;49.372;8.166;2022-10-14T09:54:32;4.67;;;3.13;;
14100;SDS011;7127;49.372;8.166;2022-10-14T09:57:02;4.10;;;3.13;;
14100;SDS011;7127;49.372;8.166;2022-10-14T09:59:31;3.67;;;3.33;;
14100;SDS011;7127;49.372;8.166;2022-10-14T10:01:59;5.10;;;3.20;;
14100;SDS011;7127;49.372;8.166;2022-10-14T10:04:34;3.70;;;3.10;;
14100;SDS011;7127;49.372;8.166;2022-10-14T10:07:06;3.20;;;2.90;;
14100;SDS011;7127;49.372;8.166;2022-10-14T10:09:52;3.60;;;3.17;;
14100;SDS011;7127;49.372;8.166;2022-10-14T10:12:21;3.20;;;2.80;;
14100;SDS011;7127;49.372;8.166;2022-10-14T10:14:56;4.43;;;3.03;;
14100;SDS011;7127;49.372;8.166;2022-10-14T10:17:24;3.30;;;2.60;;
14100;SDS011;7127;49.372;8.166;2022-10-14T10:20:06;4.20;;;2.47;;
14100;SDS011;7127;49.372;8.166;2022-10-14T10:22:43;3.43;;;2.20;;
14100;SDS011;7127;49.372;8.166;2022-10-14T10:25:18;2.37;;;2.17;;
14100;SDS011;7127;49.372;8.166;2022-10-14T10:27:51;3.60;;;2.50;;
14100;SDS011;7127;49.372;8.166;2022-10-14T10:30:22;2.77;;;2.17;;
14100;SDS011;7127;49.372;8.166;2022-10-14T10:32:58;3.10;;;2.53;;
14100;SDS011;7127;49.372;8.166;2022-10-14T10:35:40;2.43;;;2.23;;
14100;SDS011;7127;49.372;8.166;2022-10-14T10:38:31;2.63;;;2.30;;
14100;SDS011;7127;49.372;8.166;2022-10-14T10:41:11;2.30;;;2.10;;
14100;SDS011;7127;49.372;8.166;2022-10-14T10:43:54;4.63;;;2.30;;
14100;SDS011;7127;49.372;8.166;2022-10-14T10:47:05;2.30;;;2.10;;
14100;SDS011;7127;49.372;8.166;2022-10-14T10:50:02;2.47;;;2.00;;
14100;SDS011;7127;49.372;8.166;2022-10-14T10:52:46;2.77;;;2.00;;
14100;SDS011;7127;49.372;8.166;2022-10-14T10:55:26;3.27;;;2.27;;
14100;SDS011;7127;49.372;8.166;2022-10-14T10:58:01;5.10;;;2.27;;
14100;SDS011;7127;49.372;8.166;2022-10-14T11:00:42;4.87;;;2.40;;
14100;SDS011;7127;49.372;8.166;2022-10-14T11:03:21;2.43;;;2.10;;
14100;SDS011;7127;49.372;8.166;2022-10-14T11:06:01;2.40;;;2.20;;
14100;SDS011;7127;49.372;8.166;2022-10-14T11:09:02;2.40;;;2.20;;
14100;SDS011;7127;49.372;8.166;2022-10-14T11:11:50;2.67;;;1.90;;
14100;SDS011;7127;49.372;8.166;2022-10-14T11:17:34;2.60;;;1.83;;
14100;SDS011;7127;49.372;8.166;2022-10-14T11:20:11;2.93;;;2.23;;
14100;SDS011;7127;49.372;8.166;2022-10-14T11:22:49;2.10;;;1.90;;
14100;SDS011;7127;49.372;8.166;2022-10-14T11:25:33;2.80;;;1.87;;
14100;SDS011;7127;49.372;8.166;2022-10-14T11:28:09;3.10;;;1.80;;
14100;SDS011;7127;49.372;8.166;2022-10-14T11:30:43;2.30;;;2.10;;
14100;SDS011;7127;49.372;8.166;2022-10-14T11:33:25;1.83;;;1.73;;
14100;SDS011;7127;49.372;8.166;2022-10-14T11:36:14;2.20;;;1.70;;
14100;SDS011;7127;49.372;8.166;2022-10-14T11:38:50;1.63;;;1.50;;
14100;SDS011;7127;49.372;8.166;2022-10-14T11:41:29;1.93;;;1.83;;
14100;SDS011;7127;49.372;8.166;2022-10-14T11:44:02;2.37;;;1.70;;
14100;SDS011;7127;49.372;8.166;2022-10-14T11:46:37;2.57;;;1.83;;
14100;SDS011;7127;49.372;8.166;2022-10-14T11:49:09;2.10;;;1.83;;
14100;SDS011;7127;49.372;8.166;2022-10-14T11:51:42;1.57;;;1.47;;
14100;SDS011;7127;49.372;8.166;2022-10-14T11:54:15;1.73;;;1.63;;
14100;SDS011;7127;49.372;8.166;2022-10-14T11:56:47;1.73;;;1.50;;
14100;SDS011;7127;49.372;8.166;2022-10-14T11:59:24;2.63;;;1.50;;
14100;SDS011;7127;49.372;8.166;2022-10-14T12:02:10;1.97;;;1.67;;
14100;SDS011;7127;49.372;8.166;2022-10-14T12:04:55;1.37;;;1.27;;
14100;SDS011;7127;49.372;8.166;2022-10-14T12:07:26;5.00;;;1.33;;
14100;SDS011;7127;49.372;8.166;2022-10-14T12:09:58;1.80;;;1.60;;
14100;SDS011;7127;49.372;8.166;2022-10-14T12:12:29;1.60;;;1.50;;
14100;SDS011;7127;49.372;8.166;2022-10-14T12:15:03;2.10;;;1.50;;
14100;SDS011;7127;49.372;8.166;2022-10-14T12:17:33;1.97;;;1.30;;
14100;SDS011;7127;49.372;8.166;2022-10-14T12:20:06;1.70;;;1.20;;
14100;SDS011;7127;49.372;8.166;2022-10-14T12:22:45;1.40;;;1.30;;
14100;SDS011;7127;49.372;8.166;2022-10-14T12:25:14;1.57;;;1.47;;
14100;SDS011;7127;49.372;8.166;2022-10-14T12:27:44;1.80;;;1.50;;
14100;SDS011;7127;49.372;8.166;2022-10-14T12:32:59;1.70;;;1.60;;
14100;SDS011;7127;49.372;8.166;2022-10-14T12:35:44;2.13;;;1.70;;
14100;SDS011;7127;49.372;8.166;2022-10-14T12:38:13;1.60;;;1.50;;
14100;SDS011;7127;49.372;8.166;2022-10-14T12:40:40;2.07;;;1.57;;
14100;SDS011;7127;49.372;8.166;2022-10-14T12:48:40;1.43;;;1.20;;
14100;SDS011;7127;49.372;8.166;2022-10-14T12:51:12;1.33;;;1.20;;
14100;SDS011;7127;49.372;8.166;2022-10-14T12:53:47;1.33;;;1.23;;
14100;SDS011;7127;49.372;8.166;2022-10-14T12:56:54;1.17;;;0.97;;
14100;SDS011;7127;49.372;8.166;2022-10-14T12:59:27;1.43;;;1.10;;
14100;SDS011;7127;49.372;8.166;2022-10-14T13:01:57;1.87;;;1.30;;
14100;SDS011;7127;49.372;8.166;2022-10-14T13:04:28;1.73;;;1.37;;
14100;SDS011;7127;49.372;8.166;2022-10-14T13:07:13;1.90;;;1.20;;
14100;SDS011;7127;49.372;8.166;2022-10-14T13:12:52;2.30;;;1.10;;
14100;SDS011;7127;49.372;8.166;2022-10-14T13:18:33;1.23;;;1.13;;
14100;SDS011;7127;49.372;8.166;2022-10-14T13:21:20;1.27;;;0.83;;
14100;SDS011;7127;49.372;8.166;2022-10-14T13:23:55;1.80;;;1.10;;
14100;SDS011;7127;49.372;8.166;2022-10-14T13:26:31;1.17;;;1.07;;
14100;SDS011;7127;49.372;8.166;2022-10-14T13:29:09;0.90;;;0.90;;
14100;SDS011;7127;49.372;8.166;2022-10-14T13:31:45;1.20;;;1.10;;
14100;SDS011;7127;49.372;8.166;2022-10-14T13:34:25;1.33;;;1.10;;
14100;SDS011;7127;49.372;8.166;2022-10-14T13:37:03;2.27;;;1.17;;
14100;SDS011;7127;49.372;8.166;2022-10-14T13:39:46;1.23;;;1.13;;
14100;SDS011;7127;49.372;8.166;2022-10-14T13:42:15;1.60;;;1.50;;
14100;SDS011;7127;49.372;8.166;2022-10-14T13:44:47;1.60;;;1.50;;
14100;SDS011;7127;49.372;8.166;2022-10-14T13:47:16;2.17;;;1.67;;
14100;SDS011;7127;49.372;8.166;2022-10-14T13:49:49;2.00;;;1.67;;
14100;SDS011;7127;49.372;8.166;2022-10-14T13:52:17;2.17;;;1.73;;
14100;SDS011;7127;49.372;8.166;2022-10-14T13:54:53;1.93;;;1.70;;
14100;SDS011;7127;49.372;8.166;2022-10-14T13:57:31;1.70;;;1.60;;
14100;SDS011;7127;49.372;8.166;2022-10-14T13:59:58;1.60;;;1.50;;
14100;SDS011;7127;49.372;8.166;2022-10-14T14:02:27;1.80;;;1.40;;
14100;SDS011;7127;49.372;8.166;2022-10-14T14:04:56;1.50;;;1.40;;
14100;SDS011;7127;49.372;8.166;2022-10-14T14:07:32;1.53;;;1.43;;
14100;SDS011;7127;49.372;8.166;2022-10-14T14:10:02;1.87;;;1.60;;
14100;SDS011;7127;49.372;8.166;2022-10-14T14:12:33;1.97;;;1.50;;
14100;SDS011;7127;49.372;8.166;2022-10-14T14:15:00;1.53;;;1.43;;
14100;SDS011;7127;49.372;8.166;2022-10-14T14:17:29;2.03;;;1.50;;
14100;SDS011;7127;49.372;8.166;2022-10-14T14:19:58;2.43;;;1.83;;
14100;SDS011;7127;49.372;8.166;2022-10-14T14:27:39;1.70;;;1.60;;
14100;SDS011;7127;49.372;8.166;2022-10-14T14:30:18;1.67;;;1.57;;
14100;SDS011;7127;49.372;8.166;2022-10-14T14:32:49;2.20;;;1.50;;
14100;SDS011;7127;49.372;8.166;2022-10-14T14:35:18;2.37;;;1.60;;
14100;SDS011;7127;49.372;8.166;2022-10-14T14:37:45;1.50;;;1.40;;
14100;SDS011;7127;49.372;8.166;2022-10-14T14:40:14;2.63;;;1.50;;
14100;SDS011;7127;49.372;8.166;2022-10-14T14:42:43;1.50;;;1.40;;
14100;SDS011;7127;49.372;8.166;2022-10-14T14:45:13;1.80;;;1.50;;
14100;SDS011;7127;49.372;8.166;2022-10-14T14:47:45;1.70;;;1.50;;
14100;SDS011;7127;49.372;8.166;2022-10-14T14:50:16;1.30;;;1.20;;
14100;SDS011;7127;49.372;8.166;2022-10-14T14:52:47;1.43;;;1.33;;
14100;SDS011;7127;49.372;8.166;2022-10-14T14:58:02;1.77;;;1.50;;
14100;SDS011;7127;49.372;8.166;2022-10-14T15:00:41;1.43;;;1.30;;
14100;SDS011;7127;49.372;8.166;2022-10-14T15:03:10;1.60;;;1.40;;
14100;SDS011;7127;49.372;8.166;2022-10-14T15:05:38;1.77;;;1.40;;
14100;SDS011;7127;49.372;8.166;2022-10-14T15:08:11;1.57;;;1.47;;
14100;SDS011;7127;49.372;8.166;2022-10-14T15:10:47;1.30;;;1.07;;
14100;SDS011;7127;49.372;8.166;2022-10-14T15:13:25;2.10;;;1.47;;
14100;SDS011;7127;49.372;8.166;2022-10-14T15:15:55;1.67;;;1.37;;
14100;SDS011;7127;49.372;8.166;2022-10-14T15:18:23;1.73;;;1.57;;
14100;SDS011;7127;49.372;8.166;2022-10-14T15:21:04;1.20;;;1.10;;
14100;SDS011;7127;49.372;8.166;2022-10-14T15:23:38;1.50;;;1.40;;
14100;SDS011;7127;49.372;8.166;2022-10-14T15:26:24;2.47;;;1.57;;
14100;SDS011;7127;49.372;8.166;2022-10-14T15:29:02;1.23;;;1.13;;
14100;SDS011;7127;49.372;8.166;2022-10-14T15:31:41;1.47;;;1.37;;
14100;SDS011;7127;49.372;8.166;2022-10-14T15:34:14;1.73;;;1.40;;
14100;SDS011;7127;49.372;8.166;2022-10-14T15:36:44;1.10;;;1.00;;
14100;SDS011;7127;49.372;8.166;2022-10-14T15:39:15;2.20;;;1.30;;
14100;SDS011;7127;49.372;8.166;2022-10-14T15:41:42;1.20;;;1.10;;
14100;SDS011;7127;49.372;8.166;2022-10-14T15:44:09;1.67;;;1.00;;
14100;SDS011;7127;49.372;8.166;2022-10-14T15:46:36;1.00;;;0.90;;
14100;SDS011;7127;49.372;8.166;2022-10-14T15:49:24;1.30;;;1.20;;
14100;SDS011;7127;49.372;8.166;2022-10-14T15:51:55;1.10;;;1.00;;
14100;SDS011;7127;49.372;8.166;2022-10-14T15:54:22;0.80;;;0.80;;